RYR72ER EPKK-LDZD
Flight info
| Callsign | RYR72ER |
|---|---|
| Flight time | 1h 12m |
| Altitude | 36000 |
| Route | BABKO DCT NIDOK DCT XOMBA DCT KOPRY DCT KUDUL |
| Aircraft | B738/M-SDE3FGILRWY/SB1 |
Departure
| Time | 2026-04-30 12:30 |
|---|---|
| Airport | Kraków John Paul II International Airport (EPKK) |
Arrival
| Time | 2026-04-30 13:42 |
|---|---|
| Airport | Zadar Airport (LDZD) |
| Time | Latitude | Longitude | Altitude | Speed | Heading |
|---|---|---|---|---|---|
| 2026-04-30 12:19 | 50.07538 | 19.79832 | 799 ft | 0 kts | 77° |
| 2026-04-30 12:25 | 50.07538 | 19.79833 | 799 ft | 1 kts | 77° |
| 2026-04-30 12:26 | 50.07542 | 19.79863 | 799 ft | 6 kts | 77° |
| 2026-04-30 12:26 | 50.07572 | 19.79910 | 799 ft | 7 kts | 2° |
| 2026-04-30 12:26 | 50.07624 | 19.79895 | 799 ft | 9 kts | 347° |
| 2026-04-30 12:26 | 50.07686 | 19.79876 | 799 ft | 9 kts | 357° |
| 2026-04-30 12:27 | 50.07722 | 19.79944 | 799 ft | 9 kts | 77° |
| 2026-04-30 12:27 | 50.07735 | 19.80035 | 799 ft | 8 kts | 78° |
| 2026-04-30 12:27 | 50.07748 | 19.80123 | 799 ft | 8 kts | 78° |
| 2026-04-30 12:27 | 50.07760 | 19.80211 | 799 ft | 9 kts | 78° |
| 2026-04-30 12:28 | 50.07773 | 19.80304 | 799 ft | 9 kts | 77° |
| 2026-04-30 12:28 | 50.07819 | 19.80344 | 799 ft | 8 kts | 353° |
| 2026-04-30 12:28 | 50.07874 | 19.80326 | 799 ft | 8 kts | 348° |
| 2026-04-30 12:28 | 50.07928 | 19.80309 | 799 ft | 8 kts | 348° |
| 2026-04-30 12:29 | 50.07986 | 19.80288 | 798 ft | 10 kts | 341° |
| 2026-04-30 12:29 | 50.08012 | 19.80201 | 799 ft | 10 kts | 259° |
| 2026-04-30 12:29 | 50.07978 | 19.79955 | 799 ft | 53 kts | 257° |
| 2026-04-30 12:29 | 50.07845 | 19.79000 | 800 ft | 123 kts | 258° |
| 2026-04-30 12:30 | 50.07628 | 19.77421 | 846 ft | 173 kts | 260° |
| 2026-04-30 12:30 | 50.07384 | 19.75638 | 1787 ft | 162 kts | 259° |
| 2026-04-30 12:30 | 50.07127 | 19.73875 | 2497 ft | 172 kts | 261° |
| 2026-04-30 12:30 | 50.06859 | 19.72040 | 3372 ft | 174 kts | 261° |
| 2026-04-30 12:31 | 50.06585 | 19.70185 | 4149 ft | 183 kts | 261° |
| 2026-04-30 12:31 | 50.06213 | 19.68118 | 4451 ft | 215 kts | 246° |
| 2026-04-30 12:31 | 50.05195 | 19.66223 | 4701 ft | 243 kts | 219° |
| 2026-04-30 12:31 | 50.03672 | 19.64892 | 5085 ft | 265 kts | 198° |
| 2026-04-30 12:32 | 50.01808 | 19.64866 | 5713 ft | 275 kts | 167° |
| 2026-04-30 12:32 | 49.99922 | 19.65567 | 6592 ft | 280 kts | 165° |
| 2026-04-30 12:32 | 49.98026 | 19.66292 | 7536 ft | 282 kts | 165° |
| 2026-04-30 12:32 | 49.96106 | 19.66997 | 8416 ft | 286 kts | 166° |
| 2026-04-30 12:33 | 49.94145 | 19.67687 | 9229 ft | 292 kts | 165° |
| 2026-04-30 12:33 | 49.92140 | 19.68373 | 10044 ft | 298 kts | 165° |
| 2026-04-30 12:33 | 49.90092 | 19.69066 | 10785 ft | 306 kts | 165° |
| 2026-04-30 12:33 | 49.87890 | 19.69410 | 10985 ft | 336 kts | 186° |
| 2026-04-30 12:34 | 49.85653 | 19.68157 | 11487 ft | 350 kts | 208° |
| 2026-04-30 12:34 | 49.83504 | 19.66298 | 12172 ft | 357 kts | 210° |
| 2026-04-30 12:34 | 49.81334 | 19.64359 | 12909 ft | 363 kts | 210° |
| 2026-04-30 12:34 | 49.79131 | 19.62396 | 13670 ft | 368 kts | 210° |
| 2026-04-30 12:35 | 49.76889 | 19.60420 | 14423 ft | 373 kts | 210° |
| 2026-04-30 12:35 | 49.74612 | 19.58434 | 15074 ft | 378 kts | 209° |
| 2026-04-30 12:35 | 49.72329 | 19.56458 | 15738 ft | 383 kts | 209° |
| 2026-04-30 12:35 | 49.69986 | 19.54439 | 16422 ft | 388 kts | 209° |
| 2026-04-30 12:36 | 49.67613 | 19.52400 | 17089 ft | 393 kts | 209° |
| 2026-04-30 12:36 | 49.65208 | 19.50337 | 17784 ft | 396 kts | 209° |
| 2026-04-30 12:36 | 49.62779 | 19.48255 | 18469 ft | 401 kts | 209° |
| 2026-04-30 12:36 | 49.60323 | 19.46145 | 19057 ft | 406 kts | 210° |
| 2026-04-30 12:37 | 49.57858 | 19.43976 | 19663 ft | 409 kts | 210° |
| 2026-04-30 12:37 | 49.55381 | 19.41768 | 20254 ft | 413 kts | 210° |
| 2026-04-30 12:37 | 49.52884 | 19.39534 | 20813 ft | 417 kts | 210° |
| 2026-04-30 12:37 | 49.50358 | 19.37279 | 21395 ft | 421 kts | 210° |
| 2026-04-30 12:38 | 49.47842 | 19.35038 | 21947 ft | 424 kts | 210° |
| 2026-04-30 12:38 | 49.45273 | 19.32756 | 22506 ft | 428 kts | 210° |
| 2026-04-30 12:38 | 49.42682 | 19.30460 | 23051 ft | 432 kts | 210° |
| 2026-04-30 12:38 | 49.40071 | 19.28151 | 23589 ft | 435 kts | 210° |
| 2026-04-30 12:39 | 49.37432 | 19.25820 | 24087 ft | 439 kts | 210° |
| 2026-04-30 12:39 | 49.34773 | 19.23476 | 24541 ft | 442 kts | 210° |
| 2026-04-30 12:39 | 49.32097 | 19.21119 | 25001 ft | 445 kts | 210° |
| 2026-04-30 12:39 | 49.29402 | 19.18750 | 25458 ft | 448 kts | 209° |
| 2026-04-30 12:40 | 49.26689 | 19.16367 | 25887 ft | 451 kts | 209° |
| 2026-04-30 12:40 | 49.23958 | 19.13971 | 26359 ft | 453 kts | 209° |
| 2026-04-30 12:40 | 49.21250 | 19.11599 | 26796 ft | 455 kts | 209° |
| 2026-04-30 12:40 | 49.18486 | 19.09181 | 27223 ft | 459 kts | 209° |
| 2026-04-30 12:41 | 49.15704 | 19.06749 | 27632 ft | 462 kts | 209° |
| 2026-04-30 12:41 | 49.12906 | 19.04307 | 28020 ft | 465 kts | 209° |
| 2026-04-30 12:41 | 49.10083 | 19.01846 | 28397 ft | 468 kts | 209° |
| 2026-04-30 12:41 | 49.07247 | 18.99377 | 28788 ft | 470 kts | 209° |
| 2026-04-30 12:42 | 49.04395 | 18.96898 | 29222 ft | 471 kts | 209° |
| 2026-04-30 12:42 | 49.01543 | 18.94421 | 29669 ft | 472 kts | 209° |
| 2026-04-30 12:42 | 48.98675 | 18.91934 | 30009 ft | 476 kts | 209° |
| 2026-04-30 12:42 | 48.95789 | 18.89435 | 30317 ft | 479 kts | 209° |
| 2026-04-30 12:43 | 48.92881 | 18.86919 | 30612 ft | 482 kts | 209° |
| 2026-04-30 12:43 | 48.89963 | 18.84399 | 30901 ft | 484 kts | 209° |
| 2026-04-30 12:43 | 48.87026 | 18.81881 | 31205 ft | 485 kts | 207° |
| 2026-04-30 12:43 | 48.84059 | 18.79621 | 31688 ft | 480 kts | 205° |
| 2026-04-30 12:44 | 48.81035 | 18.77507 | 32205 ft | 477 kts | 204° |
| 2026-04-30 12:44 | 48.77995 | 18.75456 | 32516 ft | 478 kts | 203° |
| 2026-04-30 12:44 | 48.74943 | 18.73413 | 32768 ft | 480 kts | 203° |
| 2026-04-30 12:44 | 48.71887 | 18.71355 | 33115 ft | 480 kts | 204° |
| 2026-04-30 12:45 | 48.68847 | 18.69289 | 33532 ft | 478 kts | 204° |
| 2026-04-30 12:45 | 48.65818 | 18.67215 | 33913 ft | 477 kts | 204° |
| 2026-04-30 12:45 | 48.63811 | 18.65836 | 34147 ft | 477 kts | 204° |
| 2026-04-30 12:45 | 48.60795 | 18.63758 | 34459 ft | 477 kts | 204° |
| 2026-04-30 12:46 | 48.57781 | 18.61681 | 34729 ft | 476 kts | 204° |
| 2026-04-30 12:46 | 48.54761 | 18.59603 | 34951 ft | 477 kts | 205° |
| 2026-04-30 12:46 | 48.51731 | 18.57521 | 35165 ft | 478 kts | 205° |
| 2026-04-30 12:46 | 48.48706 | 18.55445 | 35435 ft | 477 kts | 205° |
| 2026-04-30 12:47 | 48.45681 | 18.53373 | 35715 ft | 477 kts | 205° |
| 2026-04-30 12:47 | 48.42666 | 18.51311 | 36025 ft | 475 kts | 205° |
| 2026-04-30 12:47 | 48.39660 | 18.49258 | 36322 ft | 474 kts | 205° |
| 2026-04-30 12:47 | 48.36649 | 18.47205 | 36357 ft | 478 kts | 205° |
| 2026-04-30 12:48 | 48.30568 | 18.43066 | 36367 ft | 480 kts | 205° |
| 2026-04-30 12:48 | 48.24515 | 18.38958 | 36346 ft | 473 kts | 205° |
| 2026-04-30 12:49 | 48.18537 | 18.34910 | 36374 ft | 470 kts | 205° |
| 2026-04-30 12:49 | 48.12612 | 18.30908 | 36374 ft | 469 kts | 205° |
| 2026-04-30 12:50 | 48.06667 | 18.26903 | 36379 ft | 468 kts | 205° |
| 2026-04-30 12:50 | 48.00724 | 18.22910 | 36384 ft | 468 kts | 205° |
| 2026-04-30 12:51 | 47.94770 | 18.18918 | 36381 ft | 469 kts | 205° |
| 2026-04-30 12:51 | 47.88800 | 18.14927 | 36385 ft | 470 kts | 205° |
| 2026-04-30 12:52 | 47.82864 | 18.10967 | 36385 ft | 471 kts | 205° |
| 2026-04-30 12:52 | 47.76877 | 18.06983 | 36385 ft | 472 kts | 205° |
| 2026-04-30 12:53 | 47.70922 | 18.02814 | 36383 ft | 472 kts | 207° |
| 2026-04-30 12:53 | 47.65070 | 17.98381 | 36370 ft | 473 kts | 208° |
| 2026-04-30 12:54 | 47.59214 | 17.93946 | 36381 ft | 472 kts | 208° |
| 2026-04-30 12:54 | 47.53342 | 17.89562 | 36375 ft | 471 kts | 208° |
| 2026-04-30 12:55 | 47.47483 | 17.85225 | 36379 ft | 470 kts | 207° |
| 2026-04-30 12:55 | 47.41678 | 17.80944 | 36391 ft | 468 kts | 207° |
| 2026-04-30 12:56 | 47.35854 | 17.76657 | 36395 ft | 467 kts | 207° |
| 2026-04-30 12:56 | 47.30042 | 17.72389 | 36398 ft | 466 kts | 207° |
| 2026-04-30 12:57 | 47.24226 | 17.68129 | 36400 ft | 465 kts | 208° |
| 2026-04-30 12:57 | 47.18434 | 17.63895 | 36389 ft | 464 kts | 208° |
| 2026-04-30 12:58 | 47.12676 | 17.59697 | 36388 ft | 464 kts | 207° |
| 2026-04-30 12:58 | 47.06900 | 17.55497 | 36367 ft | 463 kts | 208° |
| 2026-04-30 12:59 | 47.01114 | 17.51299 | 36378 ft | 463 kts | 208° |
| 2026-04-30 12:59 | 46.95339 | 17.47120 | 36380 ft | 463 kts | 208° |
| 2026-04-30 13:00 | 46.89563 | 17.42949 | 36387 ft | 463 kts | 207° |
| 2026-04-30 13:00 | 46.83776 | 17.38781 | 36398 ft | 463 kts | 208° |
| 2026-04-30 13:01 | 46.77986 | 17.34620 | 36397 ft | 463 kts | 207° |
| 2026-04-30 13:01 | 46.72193 | 17.30468 | 36400 ft | 463 kts | 207° |
| 2026-04-30 13:02 | 46.66426 | 17.26345 | 36403 ft | 463 kts | 208° |
| 2026-04-30 13:02 | 46.60628 | 17.22208 | 36394 ft | 463 kts | 207° |
| 2026-04-30 13:03 | 46.54838 | 17.18087 | 36401 ft | 463 kts | 207° |
| 2026-04-30 13:03 | 46.49040 | 17.13971 | 36381 ft | 464 kts | 208° |
| 2026-04-30 13:04 | 46.43239 | 17.09862 | 36381 ft | 463 kts | 208° |
| 2026-04-30 13:04 | 46.37477 | 17.05790 | 36380 ft | 463 kts | 208° |
| 2026-04-30 13:05 | 46.31676 | 17.01699 | 36386 ft | 463 kts | 208° |
| 2026-04-30 13:06 | 46.23124 | 16.95268 | 36366 ft | 459 kts | 218° |
| 2026-04-30 13:06 | 46.18285 | 16.89362 | 36374 ft | 455 kts | 224° |
| 2026-04-30 13:07 | 46.13544 | 16.83302 | 36376 ft | 454 kts | 224° |
| 2026-04-30 13:07 | 46.08792 | 16.77300 | 36363 ft | 454 kts | 224° |
| 2026-04-30 13:08 | 46.04023 | 16.71345 | 36365 ft | 453 kts | 224° |
| 2026-04-30 13:08 | 45.99250 | 16.65418 | 36362 ft | 453 kts | 224° |
| 2026-04-30 13:09 | 45.94474 | 16.59505 | 36358 ft | 452 kts | 224° |
| 2026-04-30 13:09 | 45.89740 | 16.53654 | 36356 ft | 451 kts | 224° |
| 2026-04-30 13:10 | 45.84975 | 16.47778 | 36362 ft | 451 kts | 224° |
| 2026-04-30 13:10 | 45.80214 | 16.41920 | 36363 ft | 450 kts | 224° |
| 2026-04-30 13:10 | 45.77850 | 16.39018 | 36251 ft | 445 kts | 224° |
| 2026-04-30 13:11 | 45.75513 | 16.36154 | 35969 ft | 438 kts | 224° |
| 2026-04-30 13:11 | 45.73212 | 16.33336 | 35606 ft | 434 kts | 224° |
| 2026-04-30 13:11 | 45.70925 | 16.30538 | 35250 ft | 430 kts | 224° |
| 2026-04-30 13:11 | 45.68657 | 16.27764 | 34871 ft | 428 kts | 224° |
| 2026-04-30 13:12 | 45.66403 | 16.25010 | 34505 ft | 425 kts | 224° |
| 2026-04-30 13:12 | 45.64161 | 16.22275 | 34067 ft | 423 kts | 224° |
| 2026-04-30 13:12 | 45.61929 | 16.19554 | 33657 ft | 420 kts | 224° |
| 2026-04-30 13:13 | 45.57516 | 16.14184 | 32897 ft | 414 kts | 224° |
| 2026-04-30 13:13 | 45.55333 | 16.11533 | 32531 ft | 411 kts | 224° |
| 2026-04-30 13:13 | 45.51012 | 16.06291 | 31814 ft | 405 kts | 223° |
| 2026-04-30 13:14 | 45.48874 | 16.03703 | 31456 ft | 402 kts | 223° |
| 2026-04-30 13:14 | 45.46743 | 16.01125 | 31106 ft | 400 kts | 223° |
| 2026-04-30 13:14 | 45.42526 | 15.96031 | 30410 ft | 395 kts | 224° |
| 2026-04-30 13:15 | 45.40432 | 15.93505 | 29999 ft | 393 kts | 223° |
| 2026-04-30 13:15 | 45.36289 | 15.88517 | 29264 ft | 387 kts | 223° |
| 2026-04-30 13:15 | 45.34242 | 15.86055 | 28893 ft | 383 kts | 223° |
| 2026-04-30 13:16 | 45.32215 | 15.83621 | 28529 ft | 380 kts | 223° |
| 2026-04-30 13:16 | 45.30203 | 15.81206 | 28170 ft | 377 kts | 223° |
| 2026-04-30 13:16 | 45.28208 | 15.78813 | 27820 ft | 374 kts | 223° |
| 2026-04-30 13:17 | 45.24257 | 15.74084 | 27140 ft | 368 kts | 223° |
| 2026-04-30 13:17 | 45.22306 | 15.71750 | 26792 ft | 366 kts | 223° |
| 2026-04-30 13:17 | 45.19089 | 15.67909 | 26229 ft | 362 kts | 223° |
| 2026-04-30 13:18 | 45.16519 | 15.64843 | 25776 ft | 359 kts | 223° |
| 2026-04-30 13:18 | 45.12702 | 15.60298 | 25105 ft | 356 kts | 223° |
| 2026-04-30 13:18 | 45.10807 | 15.58044 | 24773 ft | 355 kts | 223° |
| 2026-04-30 13:19 | 45.08918 | 15.55800 | 24433 ft | 354 kts | 223° |
| 2026-04-30 13:19 | 45.07054 | 15.53588 | 24104 ft | 353 kts | 223° |
| 2026-04-30 13:19 | 45.05174 | 15.51358 | 23735 ft | 353 kts | 223° |
| 2026-04-30 13:19 | 45.03296 | 15.49132 | 23360 ft | 351 kts | 223° |
| 2026-04-30 13:20 | 45.01424 | 15.46916 | 23005 ft | 349 kts | 223° |
| 2026-04-30 13:20 | 44.99564 | 15.44717 | 22635 ft | 347 kts | 224° |
| 2026-04-30 13:20 | 44.97718 | 15.42536 | 22328 ft | 345 kts | 223° |
| 2026-04-30 13:20 | 44.95879 | 15.40365 | 21997 ft | 343 kts | 223° |
| 2026-04-30 13:21 | 44.94052 | 15.38210 | 21664 ft | 341 kts | 223° |
| 2026-04-30 13:21 | 44.92237 | 15.36071 | 21334 ft | 340 kts | 225° |
| 2026-04-30 13:21 | 44.90447 | 15.33961 | 21025 ft | 338 kts | 224° |
| 2026-04-30 13:22 | 44.86854 | 15.29735 | 20384 ft | 335 kts | 224° |
| 2026-04-30 13:22 | 44.85067 | 15.27636 | 20063 ft | 333 kts | 224° |
| 2026-04-30 13:22 | 44.81509 | 15.23459 | 19413 ft | 331 kts | 224° |
| 2026-04-30 13:23 | 44.79742 | 15.21387 | 19116 ft | 330 kts | 223° |
| 2026-04-30 13:23 | 44.76213 | 15.17256 | 18437 ft | 330 kts | 225° |
| 2026-04-30 13:24 | 44.72700 | 15.13148 | 17763 ft | 326 kts | 222° |
| 2026-04-30 13:24 | 44.69208 | 15.09148 | 17140 ft | 323 kts | 215° |
| 2026-04-30 13:25 | 44.64891 | 15.08207 | 16614 ft | 320 kts | 165° |
| 2026-04-30 13:25 | 44.60907 | 15.10821 | 16014 ft | 315 kts | 150° |
| 2026-04-30 13:26 | 44.55145 | 15.15126 | 15117 ft | 311 kts | 151° |
| 2026-04-30 13:26 | 44.51320 | 15.17941 | 14516 ft | 310 kts | 151° |
| 2026-04-30 13:27 | 44.48142 | 15.20264 | 14011 ft | 310 kts | 151° |
| 2026-04-30 13:28 | 44.42414 | 15.24430 | 13036 ft | 308 kts | 150° |
| 2026-04-30 13:28 | 44.38632 | 15.27175 | 12428 ft | 305 kts | 150° |
| 2026-04-30 13:28 | 44.36748 | 15.28542 | 12132 ft | 304 kts | 150° |
| 2026-04-30 13:29 | 44.33001 | 15.31254 | 11537 ft | 302 kts | 150° |
| 2026-04-30 13:29 | 44.29285 | 15.33911 | 10952 ft | 300 kts | 155° |
| 2026-04-30 13:30 | 44.23595 | 15.31965 | 10262 ft | 291 kts | 222° |
| 2026-04-30 13:31 | 44.20583 | 15.28191 | 9644 ft | 290 kts | 223° |
| 2026-04-30 13:31 | 44.16035 | 15.22480 | 8565 ft | 294 kts | 222° |
| 2026-04-30 13:32 | 44.12994 | 15.18715 | 8087 ft | 288 kts | 221° |
| 2026-04-30 13:32 | 44.09993 | 15.15019 | 7461 ft | 288 kts | 221° |
| 2026-04-30 13:33 | 44.06984 | 15.11322 | 6864 ft | 288 kts | 221° |
| 2026-04-30 13:33 | 44.03977 | 15.07630 | 6232 ft | 290 kts | 221° |
| 2026-04-30 13:34 | 44.02468 | 15.05781 | 5959 ft | 288 kts | 220° |
| 2026-04-30 13:34 | 43.97472 | 15.02108 | 5179 ft | 271 kts | 168° |
| 2026-04-30 13:35 | 43.95715 | 15.02921 | 4901 ft | 259 kts | 146° |
| 2026-04-30 13:35 | 43.93232 | 15.06203 | 4376 ft | 240 kts | 128° |
| 2026-04-30 13:36 | 43.91185 | 15.09596 | 4056 ft | 216 kts | 112° |
| 2026-04-30 13:36 | 43.90939 | 15.11527 | 4010 ft | 196 kts | 81° |
| 2026-04-30 13:36 | 43.92076 | 15.14565 | 3830 ft | 172 kts | 39° |
| 2026-04-30 13:37 | 43.92979 | 15.15621 | 3811 ft | 169 kts | 43° |
| 2026-04-30 13:37 | 43.94773 | 15.17862 | 3508 ft | 174 kts | 42° |
| 2026-04-30 13:38 | 43.96532 | 15.20039 | 3129 ft | 167 kts | 42° |
| 2026-04-30 13:38 | 43.97406 | 15.21120 | 2953 ft | 170 kts | 42° |
| 2026-04-30 13:38 | 43.99139 | 15.23260 | 2598 ft | 155 kts | 42° |
| 2026-04-30 13:39 | 44.00719 | 15.25211 | 2202 ft | 151 kts | 43° |
| 2026-04-30 13:39 | 44.02265 | 15.27115 | 1813 ft | 141 kts | 44° |
| 2026-04-30 13:40 | 44.02986 | 15.28009 | 1628 ft | 136 kts | 44° |
| 2026-04-30 13:40 | 44.03684 | 15.28872 | 1468 ft | 134 kts | 44° |
| 2026-04-30 13:40 | 44.04392 | 15.29747 | 1298 ft | 138 kts | 43° |
| 2026-04-30 13:40 | 44.05098 | 15.30618 | 1110 ft | 133 kts | 42° |
| 2026-04-30 13:41 | 44.05783 | 15.31465 | 918 ft | 131 kts | 41° |
| 2026-04-30 13:41 | 44.06477 | 15.32311 | 753 ft | 132 kts | 40° |
| 2026-04-30 13:41 | 44.07165 | 15.33148 | 606 ft | 131 kts | 41° |
| 2026-04-30 13:41 | 44.07844 | 15.33991 | 375 ft | 131 kts | 43° |
| 2026-04-30 13:42 | 44.08494 | 15.34795 | 295 ft | 106 kts | 41° |
| 2026-04-30 13:42 | 44.08884 | 15.35284 | 298 ft | 48 kts | 42° |
| 2026-04-30 13:42 | 44.09231 | 15.35712 | 292 ft | 18 kts | 41° |
| 2026-04-30 13:43 | 44.09299 | 15.35727 | 295 ft | 10 kts | 321° |
| 2026-04-30 13:43 | 44.09346 | 15.35657 | 293 ft | 10 kts | 312° |
| 2026-04-30 13:43 | 44.09391 | 15.35588 | 297 ft | 10 kts | 315° |
| 2026-04-30 13:43 | 44.09448 | 15.35550 | 297 ft | 9 kts | 356° |
| 2026-04-30 13:44 | 44.09523 | 15.35547 | 297 ft | 12 kts | 358° |
| 2026-04-30 13:44 | 44.09608 | 15.35544 | 295 ft | 12 kts | 358° |
| 2026-04-30 13:44 | 44.09690 | 15.35541 | 295 ft | 11 kts | 357° |
| 2026-04-30 13:44 | 44.09710 | 15.35519 | 296 ft | 2 kts | 279° |
| 2026-04-30 13:45 | 44.09714 | 15.35449 | 298 ft | 4 kts | 308° |
| 2026-04-30 13:45 | 44.09736 | 15.35428 | 295 ft | 3 kts | 326° |
| 2026-04-30 13:45 | 44.09743 | 15.35421 | 295 ft | 0 kts | 326° |